Карточка аэропорта USRR

Внимание!
Информация на этой странице в стадии наполнения.
Если вы не увидели какой-то информации, или заметили неточность - пожалуйста сообщите нам!
Спасибо!
Команда RU-STAFF
Название аэропортаСургут
Название аэропорта (англ.)Surgut
Превышение196 ft. (59.7 m.)
Координаты61°20.502', 73°24.168'
Высота перехода700m
Эшелон переходаQFE>=742mm:FL040; QFE<=742mm:FL050
Коды ответчика5570-5577
Зона ОрВДТюмень РПИ (USTV)
Данные METARUSRR 291030Z 33003MPS 9999 -SHSN SCT014CB M02/M04 Q1023 R07/35//55 NOSIG RMK QFE762
Проноз погоды (TAF)USRR 290750Z 2909/0109 28003G08MPS 6000 -SHSN FEW010 BKN016CB TEMPO 2909/2918 2100 -SHSN BR SCT003 BKN016CB BECMG 2913/2914 36003G08MPS BECMG 2918/2920 9999 NSW FEW005 BKN020 TEMPO 2920/0103 -SHSN BKN016CB
NOTAMshow/hide NOTAM
AWOS   TABLE

Информация о ВПП

ВПП Длина ВПП (м.) Покрытие Курс ВПП Частота ILS
072780Асфальтобетон73110.5
252780Асфальтобетон253109.1

Диспетчерские позиции

Позывной Наименование органа УВД Частота
USRR_TWRСургут-Вышка120.800
USRR_APPСургут-Подход129.300
USRR_R_APPСургут - Круг120.300



Спутниковое изображение